Terminal Aerodrome Forecast
Issued by NWS

Home | Current Version | Previous Version | Text Only | Print | Product List | Glossary On
Versions: 1 2 3 4 5 6 7 8 9 10 11 12
000
FTUS46 KPDT 131100
TAFYKM
TAF
KYKM 131120Z 1312/1412 29007KT P6SM SCT250
     FM131700 14005KT P6SM SCT200 BKN250
     FM132300 27006KT P6SM BKN100
     FM140200 33010KT P6SM -TSRA BKN060CB OVC100
     FM140600 32009KT P6SM VCTS BKN080CB OVC120=

USA.gov is the U.S. government's official web portal to all federal, state and local government web resources and services.